createdAt,value
2022-10-13T00:01:28.129Z,9.29
2022-10-13T00:04:30.567Z,9.26
2022-10-13T00:07:32.766Z,9.13
2022-10-13T00:10:39.834Z,9.22
2022-10-13T00:13:42.950Z,9.19
2022-10-13T00:16:45.311Z,9.10
2022-10-13T00:19:47.442Z,9.18
2022-10-13T00:22:49.790Z,9.16
2022-10-13T00:25:52.219Z,9.29
2022-10-13T00:28:56.366Z,9.24
2022-10-13T00:31:58.530Z,9.08
2022-10-13T00:35:00.947Z,9.10
2022-10-13T00:38:03.043Z,9.29
2022-10-13T00:41:07.506Z,9.43
2022-10-13T00:45:04.487Z,9.31
2022-10-13T00:48:07.769Z,9.43
2022-10-13T00:51:12.652Z,9.55
2022-10-13T00:54:20.383Z,9.12
2022-10-13T00:57:23.133Z,9.34
2022-10-13T01:00:25.905Z,9.50
2022-10-13T01:03:28.101Z,9.78
2022-10-13T01:06:30.680Z,9.65
2022-10-13T01:09:37.726Z,9.65
2022-10-13T01:13:01.293Z,9.19
2022-10-13T01:16:21.718Z,9.13
2022-10-13T01:19:42.823Z,9.51
2022-10-13T01:22:55.719Z,9.27
2022-10-13T01:26:14.991Z,9.05
2022-10-13T01:29:59.977Z,8.98
2022-10-13T01:33:38.237Z,8.93
2022-10-13T01:36:48.836Z,9.11
2022-10-13T01:39:57.663Z,8.98
2022-10-13T01:43:02.786Z,8.84
2022-10-13T01:46:12.243Z,8.95
2022-10-13T01:49:17.429Z,8.89
2022-10-13T01:52:23.603Z,9.09
2022-10-13T01:55:25.686Z,9.22
2022-10-13T01:58:33.083Z,9.30
2022-10-13T02:01:37.854Z,9.27
2022-10-13T02:05:06.859Z,9.01
2022-10-13T02:08:15.505Z,9.06
2022-10-13T02:11:20.446Z,9.07
2022-10-13T02:14:27.637Z,9.09
2022-10-13T02:17:31.159Z,9.20
2022-10-13T02:20:33.814Z,9.43
2022-10-13T02:23:36.375Z,9.58
2022-10-13T02:26:39.628Z,9.38
2022-10-13T02:29:54.055Z,9.42
2022-10-13T02:32:56.388Z,9.14
2022-10-13T02:35:58.834Z,9.20
2022-10-13T02:39:01.090Z,9.29
2022-10-13T02:42:03.822Z,9.44
2022-10-13T02:45:07.216Z,9.31
2022-10-13T02:48:09.772Z,9.17
2022-10-13T02:51:11.910Z,8.96
2022-10-13T02:54:14.274Z,8.87
2022-10-13T02:57:17.902Z,8.59
2022-10-13T03:00:20.580Z,8.77
2022-10-13T03:03:22.686Z,8.74
2022-10-13T03:06:26.539Z,8.43
2022-10-13T03:09:28.683Z,8.60
2022-10-13T03:12:31.169Z,8.43
2022-10-13T03:15:33.261Z,8.40
2022-10-13T03:18:37.568Z,8.39
2022-10-13T03:21:39.926Z,8.29
2022-10-13T03:24:42.903Z,8.36
2022-10-13T03:27:47.919Z,8.69
2022-10-13T03:30:50.464Z,8.82
2022-10-13T03:33:52.617Z,8.84
2022-10-13T03:36:55.075Z,9.07
2022-10-13T03:39:57.187Z,9.06
2022-10-13T03:42:59.546Z,9.12
2022-10-13T03:46:03.733Z,9.17
2022-10-13T03:49:11.322Z,8.80
2022-10-13T03:52:13.422Z,8.56
2022-10-13T03:55:15.906Z,8.75
2022-10-13T03:58:18.917Z,8.63
2022-10-13T04:01:24.695Z,8.63
2022-10-13T04:04:27.235Z,8.48
2022-10-13T04:07:31.921Z,8.24
2022-10-13T04:10:40.544Z,8.45
2022-10-13T04:13:43.171Z,8.56
2022-10-13T04:16:49.990Z,8.79
2022-10-13T04:19:52.295Z,9.06
2022-10-13T04:22:54.850Z,9.04
2022-10-13T04:25:57.830Z,8.61
2022-10-13T04:29:02.359Z,8.40
2022-10-13T04:32:04.670Z,8.57
2022-10-13T04:35:07.466Z,8.54
2022-10-13T04:38:09.788Z,8.46
2022-10-13T04:41:13.821Z,8.54
2022-10-13T04:44:16.383Z,8.55
2022-10-13T04:47:19.081Z,8.71
2022-10-13T04:50:21.394Z,8.62
2022-10-13T04:53:33.954Z,8.25
2022-10-13T04:56:36.868Z,8.22
2022-10-13T04:59:46.627Z,8.14
2022-10-13T05:02:49.205Z,8.25
2022-10-13T05:05:52.285Z,8.24
2022-10-13T05:08:54.869Z,8.17
2022-10-13T05:12:00.416Z,8.16
2022-10-13T05:15:03.107Z,8.23
2022-10-13T05:18:05.494Z,8.30
2022-10-13T05:21:15.416Z,7.95
2022-10-13T05:24:31.302Z,7.83
2022-10-13T05:27:34.039Z,7.84
2022-10-13T05:30:36.726Z,7.87
2022-10-13T05:33:38.895Z,7.96
2022-10-13T05:36:41.484Z,8.12
2022-10-13T05:39:48.637Z,8.29
2022-10-13T05:42:52.365Z,8.54
2022-10-13T05:46:00.405Z,8.60
2022-10-13T05:49:04.625Z,9.05
2022-10-13T05:52:10.795Z,9.03
2022-10-13T05:55:16.139Z,9.21
2022-10-13T05:58:18.947Z,9.18
2022-10-13T06:01:25.341Z,9.32
2022-10-13T06:04:36.246Z,9.52
2022-10-13T06:07:38.403Z,9.53
2022-10-13T06:10:42.867Z,9.80
2022-10-13T06:13:45.206Z,9.91
2022-10-13T06:16:47.737Z,9.98
2022-10-13T06:19:49.866Z,10.57
2022-10-13T06:22:54.099Z,10.34
2022-10-13T06:25:56.303Z,10.42
2022-10-13T06:28:59.911Z,10.51
2022-10-13T06:32:02.566Z,10.55
2022-10-13T06:35:05.761Z,10.72
2022-10-13T06:38:09.246Z,10.80
2022-10-13T06:41:14.158Z,10.93
2022-10-13T06:44:16.307Z,11.19
2022-10-13T06:47:18.667Z,11.80
2022-10-13T06:50:23.794Z,12.53
2022-10-13T06:53:26.728Z,13.20
2022-10-13T06:56:31.889Z,13.30
2022-10-13T06:59:35.258Z,13.37
2022-10-13T07:02:37.544Z,13.46
2022-10-13T07:05:39.996Z,13.32
2022-10-13T07:08:42.084Z,12.95
2022-10-13T07:11:45.558Z,12.81
2022-10-13T07:14:48.171Z,12.94
2022-10-13T07:17:53.773Z,13.15
2022-10-13T07:20:58.884Z,13.11
2022-10-13T07:24:02.906Z,13.36
2022-10-13T07:27:07.758Z,13.55
2022-10-13T07:30:12.062Z,13.94
2022-10-13T07:33:14.236Z,14.03
2022-10-13T07:36:17.607Z,14.13
2022-10-13T07:39:19.854Z,14.37
2022-10-13T07:42:22.293Z,14.54
2022-10-13T07:45:24.503Z,14.75
2022-10-13T07:48:28.107Z,14.82
2022-10-13T07:51:31.554Z,14.71
2022-10-13T07:54:34.106Z,14.91
2022-10-13T07:57:36.346Z,15.09
2022-10-13T08:00:39.133Z,15.11
2022-10-13T08:03:45.583Z,15.13
2022-10-13T08:06:51.709Z,15.42
2022-10-13T08:09:54.354Z,15.48
2022-10-13T08:12:56.629Z,15.71
2022-10-13T08:16:03.332Z,15.84
2022-10-13T08:19:05.770Z,15.99
2022-10-13T08:22:10.307Z,16.27
2022-10-13T08:25:12.589Z,16.12
2022-10-13T08:28:28.613Z,16.52
2022-10-13T08:31:32.208Z,16.49
2022-10-13T08:34:36.832Z,16.63
2022-10-13T08:37:38.938Z,16.70
2022-10-13T08:40:46.916Z,16.68
2022-10-13T08:44:32.983Z,16.70
2022-10-13T08:47:37.902Z,16.70
2022-10-13T08:50:44.366Z,16.42
2022-10-13T08:53:47.429Z,16.25
2022-10-13T08:56:51.112Z,16.51
2022-10-13T08:59:53.852Z,16.54
2022-10-13T09:03:16.649Z,16.32
2022-10-13T09:06:31.957Z,16.35
2022-10-13T09:09:34.705Z,16.46
2022-10-13T09:12:37.777Z,16.51
2022-10-13T09:15:50.235Z,16.18
2022-10-13T09:18:52.746Z,16.62
2022-10-13T09:21:57.731Z,16.72
2022-10-13T09:25:06.721Z,16.80
2022-10-13T09:28:29.492Z,16.75
2022-10-13T09:31:33.100Z,16.97
2022-10-13T09:34:35.304Z,16.78
2022-10-13T09:37:41.346Z,16.87
2022-10-13T09:40:55.744Z,16.95
2022-10-13T09:44:03.496Z,17.13
2022-10-13T09:47:06.180Z,17.27
2022-10-13T09:50:20.139Z,17.16
2022-10-13T09:53:38.641Z,17.18
2022-10-13T09:56:51.987Z,17.28
2022-10-13T10:00:33.294Z,17.06
2022-10-13T10:03:42.172Z,17.18
2022-10-13T10:10:37.545Z,17.45
2022-10-13T10:13:42.383Z,17.17
2022-10-13T10:17:20.713Z,17.23
2022-10-13T10:21:10.560Z,17.53
2022-10-13T12:17:58.528Z,18.53
2022-10-13T12:21:20.978Z,18.61
2022-10-13T12:24:27.395Z,18.46
2022-10-13T12:27:41.189Z,18.52
2022-10-13T12:38:06.757Z,18.62
2022-10-13T12:41:49.617Z,18.61
2022-10-13T12:45:07.993Z,18.66
2022-10-13T12:48:38.369Z,18.60
2022-10-13T12:51:44.325Z,18.70
2022-10-13T12:54:56.250Z,18.75
2022-10-13T12:58:00.585Z,18.59
2022-10-13T13:01:14.788Z,18.62
2022-10-13T13:04:37.444Z,18.63
2022-10-13T13:07:54.763Z,18.59
2022-10-13T13:11:14.931Z,18.41
2022-10-13T13:14:42.580Z,18.43
2022-10-13T13:17:57.784Z,18.46
2022-10-13T13:21:06.463Z,18.27
2022-10-13T13:24:21.838Z,18.40
2022-10-13T13:27:39.572Z,18.06
2022-10-13T13:30:53.882Z,18.21
2022-10-13T13:34:08.812Z,18.17
2022-10-13T13:37:23.067Z,18.22
2022-10-13T13:40:28.086Z,18.35
2022-10-13T13:43:32.511Z,18.16
2022-10-13T13:46:36.593Z,18.18
2022-10-13T13:49:39.974Z,18.22
2022-10-13T13:52:42.617Z,18.12
2022-10-13T13:55:47.301Z,18.17
2022-10-13T13:58:51.049Z,18.30
2022-10-13T14:01:53.355Z,18.23
2022-10-13T14:04:59.718Z,18.14
2022-10-13T14:08:04.934Z,18.06
2022-10-13T14:11:08.419Z,17.95
2022-10-13T14:14:10.707Z,17.97
2022-10-13T14:17:14.117Z,17.96
2022-10-13T14:20:16.652Z,17.93
2022-10-13T14:23:19.970Z,17.91
2022-10-13T14:26:23.959Z,17.77
2022-10-13T14:29:27.094Z,17.73
2022-10-13T14:32:29.668Z,17.71
2022-10-13T14:35:32.681Z,17.60
2022-10-13T14:38:35.535Z,17.49
2022-10-13T14:41:39.094Z,17.56
2022-10-13T14:44:41.274Z,17.41
2022-10-13T14:47:43.899Z,17.29
2022-10-13T14:50:46.148Z,17.13
2022-10-13T14:53:48.706Z,16.99
2022-10-13T14:56:57.587Z,16.94
2022-10-13T15:00:08.837Z,17.13
2022-10-13T15:03:20.184Z,16.77
2022-10-13T15:06:34.278Z,16.65
2022-10-13T15:10:05.450Z,16.54
2022-10-13T15:13:23.726Z,16.42
2022-10-13T15:16:31.073Z,16.27
2022-10-13T15:19:39.165Z,16.19
2022-10-13T15:22:45.286Z,16.05
2022-10-13T15:26:06.678Z,15.95
2022-10-13T15:29:25.775Z,15.80
2022-10-13T15:32:32.423Z,15.71
2022-10-13T15:35:45.071Z,15.61
2022-10-13T15:39:05.762Z,15.52
2022-10-13T15:42:14.331Z,15.44
2022-10-13T15:48:41.371Z,15.28
2022-10-13T15:51:52.127Z,15.15
2022-10-13T15:55:00.091Z,15.04
2022-10-13T15:58:10.076Z,14.95
2022-10-13T16:01:19.317Z,14.86
2022-10-13T16:04:25.390Z,14.76
2022-10-13T16:07:32.797Z,14.65
2022-10-13T16:10:45.504Z,14.56
2022-10-13T16:13:54.073Z,14.46
2022-10-13T16:17:08.033Z,14.38
2022-10-13T16:20:19.471Z,14.26
2022-10-13T16:23:30.151Z,14.18
2022-10-13T16:26:33.326Z,14.09
2022-10-13T16:29:40.922Z,14.06
2022-10-13T16:32:47.530Z,13.92
2022-10-13T16:36:03.157Z,13.85
2022-10-13T16:39:22.938Z,13.75
2022-10-13T16:42:27.909Z,13.68
2022-10-13T16:45:55.106Z,13.56
2022-10-13T16:49:08.004Z,13.50
2022-10-13T16:52:15.799Z,13.46
2022-10-13T16:55:21.890Z,13.32
2022-10-13T16:58:26.653Z,13.00
2022-10-13T17:01:32.088Z,12.81
2022-10-13T17:04:36.381Z,12.63
2022-10-13T17:07:41.180Z,12.78
2022-10-13T17:10:57.469Z,12.90
2022-10-13T17:14:15.009Z,12.84
2022-10-13T17:17:21.890Z,12.81
2022-10-13T17:20:26.378Z,12.81
2022-10-13T17:23:32.590Z,12.77
2022-10-13T17:26:39.877Z,12.75
2022-10-13T17:29:45.736Z,12.77
2022-10-13T17:33:07.884Z,12.68
2022-10-13T17:36:31.594Z,12.46
2022-10-13T17:39:36.287Z,12.47
2022-10-13T17:42:46.743Z,12.51
2022-10-13T17:45:52.386Z,12.53
2022-10-13T17:48:57.752Z,12.46
2022-10-13T17:52:01.996Z,12.32
2022-10-13T17:55:06.253Z,12.15
2022-10-13T17:58:10.939Z,12.14
2022-10-13T18:01:16.687Z,12.07
2022-10-13T18:04:22.746Z,12.13
2022-10-13T18:07:29.629Z,12.02
2022-10-13T18:11:03.613Z,12.01
2022-10-13T18:14:01.112Z,11.99
2022-10-13T18:17:04.539Z,12.01
2022-10-13T18:20:08.128Z,11.91
2022-10-13T18:23:12.125Z,11.88
2022-10-13T18:26:19.741Z,11.69
2022-10-13T18:29:24.410Z,11.49
2022-10-13T18:32:27.597Z,11.45
2022-10-13T18:35:32.347Z,11.31
2022-10-13T18:38:36.669Z,11.26
2022-10-13T18:41:40.928Z,11.26
2022-10-13T18:44:45.528Z,11.25
2022-10-13T18:47:52.064Z,11.33
2022-10-13T18:50:55.058Z,11.24
2022-10-13T18:54:08.438Z,11.04
2022-10-13T18:57:13.707Z,11.14
2022-10-13T19:00:20.128Z,11.13
2022-10-13T19:03:23.112Z,10.93
2022-10-13T19:06:27.793Z,10.78
2022-10-13T19:09:30.670Z,11.02
2022-10-13T19:12:35.093Z,10.90
2022-10-13T19:15:39.900Z,10.63
2022-10-13T19:18:44.083Z,10.45
2022-10-13T19:21:47.224Z,10.49
2022-10-13T19:24:52.261Z,10.52
2022-10-13T19:27:55.072Z,10.48
2022-10-13T19:30:58.437Z,10.40
2022-10-13T19:34:03.109Z,10.45
2022-10-13T19:37:06.105Z,10.38
2022-10-13T19:40:09.187Z,10.46
2022-10-13T19:43:12.522Z,10.42
2022-10-13T19:46:15.772Z,10.31
2022-10-13T19:49:20.978Z,10.18
2022-10-13T19:52:27.905Z,10.25
2022-10-13T19:55:32.132Z,10.26
2022-10-13T19:58:35.624Z,10.28
2022-10-13T20:01:41.229Z,10.19
2022-10-13T20:04:52.035Z,10.20
2022-10-13T20:07:55.784Z,10.24
2022-10-13T20:11:01.346Z,10.29
2022-10-13T20:14:04.350Z,10.46
2022-10-13T20:17:07.893Z,10.21
2022-10-13T20:20:11.257Z,10.31
2022-10-13T20:23:14.928Z,10.24
2022-10-13T20:26:18.681Z,10.35
2022-10-13T20:29:24.694Z,10.16
2022-10-13T20:32:27.821Z,9.95
2022-10-13T20:35:33.226Z,9.94
2022-10-13T20:38:36.433Z,9.87
2022-10-13T20:41:39.634Z,9.92
2022-10-13T20:44:42.673Z,9.87
2022-10-13T20:47:47.506Z,9.94
2022-10-13T20:50:50.321Z,9.80
2022-10-13T20:53:54.744Z,9.95
2022-10-13T20:57:01.365Z,9.85
2022-10-13T21:00:07.602Z,9.99
2022-10-13T21:03:10.475Z,10.06
2022-10-13T21:06:14.466Z,9.93
2022-10-13T21:09:17.154Z,9.83
2022-10-13T21:12:21.916Z,9.85
2022-10-13T21:15:26.307Z,9.78
2022-10-13T21:18:33.192Z,9.55
2022-10-13T21:21:36.712Z,9.43
2022-10-13T21:24:40.127Z,9.48
2022-10-13T21:27:43.057Z,9.70
2022-10-13T21:30:45.987Z,9.65
2022-10-13T21:33:50.750Z,9.61
2022-10-13T21:36:53.806Z,9.50
2022-10-13T21:39:58.720Z,9.44
2022-10-13T21:43:03.131Z,9.47
2022-10-13T21:46:36.335Z,9.40
2022-10-13T21:49:39.527Z,9.61
2022-10-13T21:52:43.617Z,9.47
2022-10-13T21:55:46.923Z,9.55
2022-10-13T21:58:49.776Z,9.37
2022-10-13T22:01:52.661Z,9.28
2022-10-13T22:04:55.849Z,9.53
2022-10-13T22:07:59.655Z,9.48
2022-10-13T22:11:02.580Z,9.51
2022-10-13T22:14:06.220Z,9.50
2022-10-13T22:17:09.353Z,9.67
2022-10-13T22:20:12.545Z,9.58
2022-10-13T22:23:18.636Z,9.51
2022-10-13T22:26:21.195Z,9.39
2022-10-13T22:29:25.357Z,9.46
2022-10-13T22:32:28.293Z,9.18
2022-10-13T22:35:34.505Z,9.18
2022-10-13T22:38:38.153Z,9.32
2022-10-13T22:41:42.116Z,9.17
2022-10-13T22:44:44.920Z,9.24
2022-10-13T22:47:51.675Z,9.08
2022-10-13T22:50:54.379Z,9.06
2022-10-13T22:53:58.710Z,8.89
2022-10-13T22:57:01.315Z,8.96
2022-10-13T23:00:07.699Z,8.80
2022-10-13T23:03:15.014Z,8.79
2022-10-13T23:06:24.651Z,8.77
2022-10-13T23:09:27.448Z,8.71
2022-10-13T23:12:33.161Z,8.74
2022-10-13T23:15:40.024Z,8.61
2022-10-13T23:18:43.852Z,8.68
2022-10-13T23:21:49.716Z,8.56
2022-10-13T23:24:53.801Z,8.49
2022-10-13T23:27:56.317Z,8.56
2022-10-13T23:31:01.482Z,8.42
2022-10-13T23:34:03.962Z,8.47
2022-10-13T23:37:08.267Z,8.51
2022-10-13T23:40:11.873Z,8.56
2022-10-13T23:43:14.619Z,8.69
2022-10-13T23:46:17.038Z,8.74
2022-10-13T23:49:19.863Z,8.66
2022-10-13T23:52:22.455Z,8.83
2022-10-13T23:55:25.504Z,8.85
2022-10-13T23:58:28.008Z,8.79
